sensor_id;sensor_type;location;lat;lon;timestamp;P1;durP1;ratioP1;P2;durP2;ratioP2
11425;SDS011;5769;47.998;7.788;2023-10-19T00:02:07;3.35;;;1.85;;
11425;SDS011;5769;47.998;7.788;2023-10-19T00:04:33;2.83;;;1.55;;
11425;SDS011;5769;47.998;7.788;2023-10-19T00:07:01;3.17;;;1.58;;
11425;SDS011;5769;47.998;7.788;2023-10-19T00:09:29;3.13;;;1.73;;
11425;SDS011;5769;47.998;7.788;2023-10-19T00:12:03;3.17;;;1.65;;
11425;SDS011;5769;47.998;7.788;2023-10-19T00:14:31;2.40;;;1.60;;
11425;SDS011;5769;47.998;7.788;2023-10-19T00:16:58;3.42;;;1.88;;
11425;SDS011;5769;47.998;7.788;2023-10-19T00:19:26;3.83;;;1.70;;
11425;SDS011;5769;47.998;7.788;2023-10-19T00:21:53;2.38;;;1.58;;
11425;SDS011;5769;47.998;7.788;2023-10-19T00:24:26;3.10;;;1.67;;
11425;SDS011;5769;47.998;7.788;2023-10-19T00:26:56;3.83;;;1.55;;
11425;SDS011;5769;47.998;7.788;2023-10-19T00:29:23;2.55;;;1.60;;
11425;SDS011;5769;47.998;7.788;2023-10-19T00:31:56;3.83;;;1.55;;
11425;SDS011;5769;47.998;7.788;2023-10-19T00:34:23;2.63;;;1.50;;
11425;SDS011;5769;47.998;7.788;2023-10-19T00:36:50;2.95;;;1.63;;
11425;SDS011;5769;47.998;7.788;2023-10-19T00:39:17;2.60;;;1.50;;
11425;SDS011;5769;47.998;7.788;2023-10-19T00:41:47;3.67;;;1.83;;
11425;SDS011;5769;47.998;7.788;2023-10-19T00:44:14;3.05;;;1.70;;
11425;SDS011;5769;47.998;7.788;2023-10-19T00:46:48;3.00;;;1.58;;
11425;SDS011;5769;47.998;7.788;2023-10-19T00:49:25;2.90;;;1.52;;
11425;SDS011;5769;47.998;7.788;2023-10-19T00:51:55;3.00;;;1.60;;
11425;SDS011;5769;47.998;7.788;2023-10-19T00:54:29;3.88;;;1.33;;
11425;SDS011;5769;47.998;7.788;2023-10-19T00:57:01;2.42;;;1.30;;
11425;SDS011;5769;47.998;7.788;2023-10-19T00:59:33;3.55;;;1.60;;
11425;SDS011;5769;47.998;7.788;2023-10-19T01:02:05;3.28;;;1.80;;
11425;SDS011;5769;47.998;7.788;2023-10-19T01:04:42;2.33;;;1.20;;
11425;SDS011;5769;47.998;7.788;2023-10-19T01:07:11;2.85;;;1.50;;
11425;SDS011;5769;47.998;7.788;2023-10-19T01:09:42;3.08;;;1.67;;
11425;SDS011;5769;47.998;7.788;2023-10-19T01:12:11;2.40;;;1.50;;
11425;SDS011;5769;47.998;7.788;2023-10-19T01:15:06;2.35;;;1.60;;
11425;SDS011;5769;47.998;7.788;2023-10-19T01:17:39;3.20;;;1.60;;
11425;SDS011;5769;47.998;7.788;2023-10-19T01:20:09;3.10;;;1.70;;
11425;SDS011;5769;47.998;7.788;2023-10-19T01:22:49;3.42;;;1.48;;
11425;SDS011;5769;47.998;7.788;2023-10-19T01:25:31;3.00;;;1.50;;
11425;SDS011;5769;47.998;7.788;2023-10-19T01:28:02;3.33;;;1.67;;
11425;SDS011;5769;47.998;7.788;2023-10-19T01:30:34;1.90;;;1.35;;
11425;SDS011;5769;47.998;7.788;2023-10-19T01:33:01;2.85;;;1.52;;
11425;SDS011;5769;47.998;7.788;2023-10-19T01:35:29;2.63;;;1.50;;
11425;SDS011;5769;47.998;7.788;2023-10-19T01:38:17;2.80;;;1.30;;
11425;SDS011;5769;47.998;7.788;2023-10-19T01:40:43;2.78;;;1.63;;
11425;SDS011;5769;47.998;7.788;2023-10-19T01:43:13;3.53;;;1.75;;
11425;SDS011;5769;47.998;7.788;2023-10-19T01:45:46;2.80;;;1.60;;
11425;SDS011;5769;47.998;7.788;2023-10-19T01:48:14;1.75;;;1.10;;
11425;SDS011;5769;47.998;7.788;2023-10-19T01:50:41;2.67;;;1.40;;
11425;SDS011;5769;47.998;7.788;2023-10-19T01:53:07;3.10;;;1.50;;
11425;SDS011;5769;47.998;7.788;2023-10-19T01:55:41;3.10;;;1.60;;
11425;SDS011;5769;47.998;7.788;2023-10-19T01:58:08;3.13;;;1.48;;
11425;SDS011;5769;47.998;7.788;2023-10-19T02:00:36;2.85;;;1.52;;
11425;SDS011;5769;47.998;7.788;2023-10-19T02:03:05;2.50;;;1.42;;
11425;SDS011;5769;47.998;7.788;2023-10-19T02:05:33;3.08;;;1.50;;
11425;SDS011;5769;47.998;7.788;2023-10-19T02:08:06;2.72;;;1.33;;
11425;SDS011;5769;47.998;7.788;2023-10-19T02:10:33;2.20;;;1.30;;
11425;SDS011;5769;47.998;7.788;2023-10-19T02:13:01;2.47;;;1.40;;
11425;SDS011;5769;47.998;7.788;2023-10-19T02:15:31;3.53;;;1.40;;
11425;SDS011;5769;47.998;7.788;2023-10-19T02:17:59;2.22;;;1.58;;
11425;SDS011;5769;47.998;7.788;2023-10-19T02:20:27;4.65;;;1.52;;
11425;SDS011;5769;47.998;7.788;2023-10-19T02:22:53;4.15;;;1.73;;
11425;SDS011;5769;47.998;7.788;2023-10-19T02:25:22;3.40;;;1.50;;
11425;SDS011;5769;47.998;7.788;2023-10-19T02:27:50;2.28;;;1.30;;
11425;SDS011;5769;47.998;7.788;2023-10-19T02:30:18;2.63;;;1.52;;
11425;SDS011;5769;47.998;7.788;2023-10-19T02:32:44;2.10;;;1.30;;
11425;SDS011;5769;47.998;7.788;2023-10-19T02:35:12;2.58;;;1.52;;
11425;SDS011;5769;47.998;7.788;2023-10-19T02:37:39;3.63;;;1.73;;
11425;SDS011;5769;47.998;7.788;2023-10-19T02:40:06;2.10;;;1.30;;
11425;SDS011;5769;47.998;7.788;2023-10-19T02:42:37;2.47;;;1.50;;
11425;SDS011;5769;47.998;7.788;2023-10-19T02:45:04;1.88;;;1.17;;
11425;SDS011;5769;47.998;7.788;2023-10-19T02:47:33;2.08;;;1.10;;
11425;SDS011;5769;47.998;7.788;2023-10-19T02:50:00;2.72;;;1.30;;
11425;SDS011;5769;47.998;7.788;2023-10-19T02:52:26;2.85;;;1.58;;
11425;SDS011;5769;47.998;7.788;2023-10-19T02:54:53;2.47;;;1.30;;
11425;SDS011;5769;47.998;7.788;2023-10-19T02:57:22;2.13;;;1.27;;
11425;SDS011;5769;47.998;7.788;2023-10-19T02:59:48;2.85;;;1.17;;
11425;SDS011;5769;47.998;7.788;2023-10-19T03:02:15;2.65;;;1.58;;
11425;SDS011;5769;47.998;7.788;2023-10-19T03:04:44;2.00;;;1.10;;
11425;SDS011;5769;47.998;7.788;2023-10-19T03:07:10;2.05;;;1.35;;
11425;SDS011;5769;47.998;7.788;2023-10-19T03:09:38;2.35;;;1.40;;
11425;SDS011;5769;47.998;7.788;2023-10-19T03:12:04;2.60;;;1.30;;
11425;SDS011;5769;47.998;7.788;2023-10-19T03:14:35;2.28;;;1.20;;
11425;SDS011;5769;47.998;7.788;2023-10-19T03:17:02;2.13;;;1.30;;
11425;SDS011;5769;47.998;7.788;2023-10-19T03:19:29;2.53;;;1.42;;
11425;SDS011;5769;47.998;7.788;2023-10-19T03:21:56;2.17;;;1.20;;
11425;SDS011;5769;47.998;7.788;2023-10-19T03:24:25;2.70;;;1.30;;
11425;SDS011;5769;47.998;7.788;2023-10-19T03:27:00;2.70;;;1.30;;
11425;SDS011;5769;47.998;7.788;2023-10-19T03:29:33;2.55;;;1.40;;
11425;SDS011;5769;47.998;7.788;2023-10-19T03:32:03;2.72;;;1.13;;
11425;SDS011;5769;47.998;7.788;2023-10-19T03:34:30;2.13;;;1.40;;
11425;SDS011;5769;47.998;7.788;2023-10-19T03:36:59;1.90;;;1.35;;
11425;SDS011;5769;47.998;7.788;2023-10-19T03:39:30;2.92;;;1.38;;
11425;SDS011;5769;47.998;7.788;2023-10-19T03:41:59;1.48;;;1.00;;
11425;SDS011;5769;47.998;7.788;2023-10-19T03:44:26;2.00;;;1.13;;
11425;SDS011;5769;47.998;7.788;2023-10-19T03:47:07;1.65;;;1.10;;
11425;SDS011;5769;47.998;7.788;2023-10-19T03:49:36;2.97;;;1.40;;
11425;SDS011;5769;47.998;7.788;2023-10-19T03:52:05;2.35;;;1.13;;
11425;SDS011;5769;47.998;7.788;2023-10-19T03:54:46;1.83;;;1.20;;
11425;SDS011;5769;47.998;7.788;2023-10-19T03:57:13;2.40;;;1.30;;
11425;SDS011;5769;47.998;7.788;2023-10-19T03:59:44;2.33;;;1.20;;
11425;SDS011;5769;47.998;7.788;2023-10-19T04:02:14;2.28;;;1.20;;
11425;SDS011;5769;47.998;7.788;2023-10-19T04:04:45;1.88;;;1.20;;
11425;SDS011;5769;47.998;7.788;2023-10-19T04:07:15;2.97;;;1.25;;
11425;SDS011;5769;47.998;7.788;2023-10-19T04:09:46;1.50;;;1.10;;
11425;SDS011;5769;47.998;7.788;2023-10-19T04:12:34;2.58;;;1.30;;
11425;SDS011;5769;47.998;7.788;2023-10-19T04:15:02;3.22;;;1.30;;
11425;SDS011;5769;47.998;7.788;2023-10-19T04:17:35;1.73;;;0.98;;
11425;SDS011;5769;47.998;7.788;2023-10-19T04:20:04;2.00;;;1.20;;
11425;SDS011;5769;47.998;7.788;2023-10-19T04:22:45;1.95;;;1.20;;
11425;SDS011;5769;47.998;7.788;2023-10-19T04:25:12;3.63;;;1.38;;
11425;SDS011;5769;47.998;7.788;2023-10-19T04:27:41;3.92;;;1.42;;
11425;SDS011;5769;47.998;7.788;2023-10-19T04:30:08;1.95;;;1.17;;
11425;SDS011;5769;47.998;7.788;2023-10-19T04:32:40;2.20;;;1.15;;
11425;SDS011;5769;47.998;7.788;2023-10-19T04:35:07;1.92;;;1.25;;
11425;SDS011;5769;47.998;7.788;2023-10-19T04:37:34;1.67;;;1.10;;
11425;SDS011;5769;47.998;7.788;2023-10-19T04:40:02;1.42;;;1.13;;
11425;SDS011;5769;47.998;7.788;2023-10-19T04:42:32;2.05;;;1.10;;
11425;SDS011;5769;47.998;7.788;2023-10-19T04:44:59;2.15;;;1.02;;
11425;SDS011;5769;47.998;7.788;2023-10-19T04:47:26;1.90;;;1.00;;
11425;SDS011;5769;47.998;7.788;2023-10-19T04:49:53;1.45;;;1.08;;
11425;SDS011;5769;47.998;7.788;2023-10-19T04:52:20;2.85;;;1.10;;
11425;SDS011;5769;47.998;7.788;2023-10-19T04:54:47;2.53;;;1.20;;
11425;SDS011;5769;47.998;7.788;2023-10-19T04:57:15;1.40;;;1.10;;
11425;SDS011;5769;47.998;7.788;2023-10-19T04:59:41;1.58;;;1.00;;
11425;SDS011;5769;47.998;7.788;2023-10-19T05:02:10;2.13;;;1.20;;
11425;SDS011;5769;47.998;7.788;2023-10-19T05:04:37;2.00;;;1.20;;
11425;SDS011;5769;47.998;7.788;2023-10-19T05:07:03;1.75;;;1.00;;
11425;SDS011;5769;47.998;7.788;2023-10-19T05:09:31;1.90;;;1.08;;
11425;SDS011;5769;47.998;7.788;2023-10-19T05:11:58;1.85;;;1.02;;
11425;SDS011;5769;47.998;7.788;2023-10-19T05:14:26;1.83;;;1.20;;
11425;SDS011;5769;47.998;7.788;2023-10-19T05:16:52;2.88;;;1.30;;
11425;SDS011;5769;47.998;7.788;2023-10-19T05:19:19;1.88;;;1.10;;
11425;SDS011;5769;47.998;7.788;2023-10-19T05:21:46;2.22;;;1.10;;
11425;SDS011;5769;47.998;7.788;2023-10-19T05:24:12;1.60;;;1.10;;
11425;SDS011;5769;47.998;7.788;2023-10-19T05:26:39;1.95;;;1.10;;
11425;SDS011;5769;47.998;7.788;2023-10-19T05:29:06;1.70;;;1.20;;
11425;SDS011;5769;47.998;7.788;2023-10-19T05:31:34;2.00;;;1.00;;
11425;SDS011;5769;47.998;7.788;2023-10-19T05:34:00;2.58;;;1.17;;
11425;SDS011;5769;47.998;7.788;2023-10-19T05:36:27;2.50;;;1.10;;
11425;SDS011;5769;47.998;7.788;2023-10-19T05:38:54;1.65;;;1.10;;
11425;SDS011;5769;47.998;7.788;2023-10-19T05:41:20;2.20;;;1.20;;
11425;SDS011;5769;47.998;7.788;2023-10-19T05:43:47;2.45;;;1.17;;
11425;SDS011;5769;47.998;7.788;2023-10-19T05:46:14;1.83;;;1.00;;
11425;SDS011;5769;47.998;7.788;2023-10-19T05:48:44;1.70;;;1.00;;
11425;SDS011;5769;47.998;7.788;2023-10-19T05:51:11;2.25;;;1.20;;
11425;SDS011;5769;47.998;7.788;2023-10-19T05:53:39;1.90;;;1.02;;
11425;SDS011;5769;47.998;7.788;2023-10-19T05:56:06;2.28;;;1.00;;
11425;SDS011;5769;47.998;7.788;2023-10-19T05:58:33;1.70;;;1.08;;
11425;SDS011;5769;47.998;7.788;2023-10-19T06:00:59;2.00;;;1.00;;
11425;SDS011;5769;47.998;7.788;2023-10-19T06:03:26;2.33;;;1.00;;
11425;SDS011;5769;47.998;7.788;2023-10-19T06:05:55;2.33;;;1.00;;
11425;SDS011;5769;47.998;7.788;2023-10-19T06:08:23;1.67;;;1.00;;
11425;SDS011;5769;47.998;7.788;2023-10-19T06:10:50;1.48;;;0.90;;
11425;SDS011;5769;47.998;7.788;2023-10-19T06:13:18;2.75;;;0.98;;
11425;SDS011;5769;47.998;7.788;2023-10-19T06:15:45;1.77;;;1.00;;
11425;SDS011;5769;47.998;7.788;2023-10-19T06:18:13;1.58;;;1.15;;
11425;SDS011;5769;47.998;7.788;2023-10-19T06:20:42;2.67;;;0.98;;
11425;SDS011;5769;47.998;7.788;2023-10-19T06:23:11;1.35;;;0.95;;
11425;SDS011;5769;47.998;7.788;2023-10-19T06:25:38;1.45;;;1.00;;
11425;SDS011;5769;47.998;7.788;2023-10-19T06:28:08;1.55;;;1.00;;
11425;SDS011;5769;47.998;7.788;2023-10-19T06:30:36;1.85;;;1.08;;
11425;SDS011;5769;47.998;7.788;2023-10-19T06:33:03;1.73;;;0.90;;
11425;SDS011;5769;47.998;7.788;2023-10-19T06:35:30;1.98;;;1.10;;
11425;SDS011;5769;47.998;7.788;2023-10-19T06:37:58;2.08;;;1.00;;
11425;SDS011;5769;47.998;7.788;2023-10-19T06:40:27;1.70;;;1.00;;
11425;SDS011;5769;47.998;7.788;2023-10-19T06:42:54;1.48;;;0.93;;
11425;SDS011;5769;47.998;7.788;2023-10-19T06:45:22;1.67;;;0.93;;
11425;SDS011;5769;47.998;7.788;2023-10-19T06:47:50;1.83;;;0.98;;
11425;SDS011;5769;47.998;7.788;2023-10-19T06:50:18;1.30;;;0.90;;
11425;SDS011;5769;47.998;7.788;2023-10-19T06:52:46;2.10;;;1.13;;
11425;SDS011;5769;47.998;7.788;2023-10-19T06:55:14;2.28;;;1.02;;
11425;SDS011;5769;47.998;7.788;2023-10-19T06:57:46;1.65;;;1.05;;
11425;SDS011;5769;47.998;7.788;2023-10-19T07:00:15;1.88;;;0.90;;
11425;SDS011;5769;47.998;7.788;2023-10-19T07:02:45;2.40;;;1.00;;
11425;SDS011;5769;47.998;7.788;2023-10-19T07:05:12;1.80;;;0.88;;
11425;SDS011;5769;47.998;7.788;2023-10-19T07:07:43;1.38;;;0.90;;
11425;SDS011;5769;47.998;7.788;2023-10-19T07:10:11;1.85;;;1.00;;
11425;SDS011;5769;47.998;7.788;2023-10-19T07:12:39;1.95;;;1.00;;
11425;SDS011;5769;47.998;7.788;2023-10-19T07:15:08;1.70;;;0.98;;
11425;SDS011;5769;47.998;7.788;2023-10-19T07:17:39;1.35;;;0.90;;
11425;SDS011;5769;47.998;7.788;2023-10-19T07:20:06;1.35;;;1.00;;
11425;SDS011;5769;47.998;7.788;2023-10-19T07:22:34;1.50;;;0.80;;
11425;SDS011;5769;47.998;7.788;2023-10-19T07:25:03;1.52;;;0.82;;
11425;SDS011;5769;47.998;7.788;2023-10-19T07:27:31;0.98;;;0.70;;
11425;SDS011;5769;47.998;7.788;2023-10-19T07:30:00;1.25;;;0.90;;
11425;SDS011;5769;47.998;7.788;2023-10-19T07:32:31;1.50;;;1.00;;
11425;SDS011;5769;47.998;7.788;2023-10-19T07:34:58;1.50;;;0.90;;
11425;SDS011;5769;47.998;7.788;2023-10-19T07:37:25;1.17;;;0.80;;
11425;SDS011;5769;47.998;7.788;2023-10-19T07:39:52;1.70;;;1.00;;
11425;SDS011;5769;47.998;7.788;2023-10-19T07:42:22;1.25;;;0.90;;
11425;SDS011;5769;47.998;7.788;2023-10-19T07:44:48;1.83;;;1.20;;
11425;SDS011;5769;47.998;7.788;2023-10-19T07:47:15;1.42;;;0.95;;
11425;SDS011;5769;47.998;7.788;2023-10-19T07:49:43;2.05;;;1.00;;
11425;SDS011;5769;47.998;7.788;2023-10-19T07:52:10;1.20;;;0.82;;
11425;SDS011;5769;47.998;7.788;2023-10-19T07:54:37;1.88;;;1.05;;
11425;SDS011;5769;47.998;7.788;2023-10-19T07:57:03;1.70;;;0.93;;
11425;SDS011;5769;47.998;7.788;2023-10-19T07:59:31;1.75;;;0.88;;
11425;SDS011;5769;47.998;7.788;2023-10-19T08:01:58;1.33;;;0.93;;
11425;SDS011;5769;47.998;7.788;2023-10-19T08:04:27;1.10;;;0.80;;
11425;SDS011;5769;47.998;7.788;2023-10-19T08:06:55;1.58;;;0.80;;
11425;SDS011;5769;47.998;7.788;2023-10-19T08:09:21;1.95;;;0.88;;
11425;SDS011;5769;47.998;7.788;2023-10-19T08:11:49;1.27;;;0.88;;
11425;SDS011;5769;47.998;7.788;2023-10-19T08:14:20;1.98;;;0.70;;
11425;SDS011;5769;47.998;7.788;2023-10-19T08:16:47;1.38;;;0.73;;
11425;SDS011;5769;47.998;7.788;2023-10-19T08:19:13;1.52;;;0.70;;
11425;SDS011;5769;47.998;7.788;2023-10-19T08:21:40;1.75;;;0.98;;
11425;SDS011;5769;47.998;7.788;2023-10-19T08:24:09;1.45;;;0.88;;
11425;SDS011;5769;47.998;7.788;2023-10-19T08:26:38;1.48;;;1.00;;
11425;SDS011;5769;47.998;7.788;2023-10-19T08:29:06;1.27;;;0.98;;
11425;SDS011;5769;47.998;7.788;2023-10-19T08:31:37;1.58;;;0.90;;
11425;SDS011;5769;47.998;7.788;2023-10-19T08:34:05;1.30;;;0.80;;
11425;SDS011;5769;47.998;7.788;2023-10-19T08:36:36;1.73;;;1.08;;
11425;SDS011;5769;47.998;7.788;2023-10-19T08:39:15;1.63;;;0.90;;
11425;SDS011;5769;47.998;7.788;2023-10-19T08:41:43;1.67;;;0.95;;
11425;SDS011;5769;47.998;7.788;2023-10-19T08:44:14;1.25;;;0.73;;
11425;SDS011;5769;47.998;7.788;2023-10-19T08:46:44;1.30;;;0.77;;
11425;SDS011;5769;47.998;7.788;2023-10-19T08:49:15;1.42;;;0.88;;
11425;SDS011;5769;47.998;7.788;2023-10-19T08:51:45;1.73;;;0.82;;
11425;SDS011;5769;47.998;7.788;2023-10-19T08:54:16;1.50;;;0.95;;
11425;SDS011;5769;47.998;7.788;2023-10-19T08:56:45;1.17;;;0.70;;
11425;SDS011;5769;47.998;7.788;2023-10-19T08:59:15;2.42;;;0.93;;
11425;SDS011;5769;47.998;7.788;2023-10-19T09:01:42;1.50;;;1.00;;
11425;SDS011;5769;47.998;7.788;2023-10-19T09:04:09;1.30;;;0.80;;
11425;SDS011;5769;47.998;7.788;2023-10-19T09:06:41;1.75;;;0.85;;
11425;SDS011;5769;47.998;7.788;2023-10-19T09:09:08;1.92;;;0.90;;
11425;SDS011;5769;47.998;7.788;2023-10-19T09:11:43;2.03;;;0.90;;
11425;SDS011;5769;47.998;7.788;2023-10-19T09:14:09;3.13;;;0.90;;
11425;SDS011;5769;47.998;7.788;2023-10-19T09:16:38;2.45;;;1.02;;
11425;SDS011;5769;47.998;7.788;2023-10-19T09:19:19;1.45;;;0.88;;
11425;SDS011;5769;47.998;7.788;2023-10-19T09:21:46;1.63;;;0.90;;
11425;SDS011;5769;47.998;7.788;2023-10-19T09:24:13;1.67;;;0.90;;
11425;SDS011;5769;47.998;7.788;2023-10-19T09:26:40;1.50;;;0.90;;
11425;SDS011;5769;47.998;7.788;2023-10-19T09:29:09;1.77;;;1.00;;
11425;SDS011;5769;47.998;7.788;2023-10-19T09:31:43;2.22;;;0.90;;
11425;SDS011;5769;47.998;7.788;2023-10-19T09:34:11;1.10;;;0.70;;
11425;SDS011;5769;47.998;7.788;2023-10-19T09:36:39;1.70;;;0.88;;
11425;SDS011;5769;47.998;7.788;2023-10-19T09:39:08;1.20;;;0.85;;
11425;SDS011;5769;47.998;7.788;2023-10-19T09:41:37;1.60;;;0.90;;
11425;SDS011;5769;47.998;7.788;2023-10-19T09:44:07;1.35;;;0.90;;
11425;SDS011;5769;47.998;7.788;2023-10-19T09:46:38;1.42;;;0.80;;
11425;SDS011;5769;47.998;7.788;2023-10-19T09:49:06;1.80;;;0.85;;
11425;SDS011;5769;47.998;7.788;2023-10-19T09:51:36;1.33;;;0.75;;
11425;SDS011;5769;47.998;7.788;2023-10-19T09:54:05;0.88;;;0.60;;
11425;SDS011;5769;47.998;7.788;2023-10-19T09:56:40;1.17;;;0.80;;
11425;SDS011;5769;47.998;7.788;2023-10-19T09:59:18;4.68;;;0.90;;
11425;SDS011;5769;47.998;7.788;2023-10-19T10:02:05;1.35;;;0.90;;
11425;SDS011;5769;47.998;7.788;2023-10-19T10:04:35;1.55;;;0.93;;
11425;SDS011;5769;47.998;7.788;2023-10-19T10:07:03;0.75;;;0.70;;
11425;SDS011;5769;47.998;7.788;2023-10-19T10:09:32;1.13;;;0.80;;
11425;SDS011;5769;47.998;7.788;2023-10-19T10:14:58;0.90;;;0.73;;
11425;SDS011;5769;47.998;7.788;2023-10-19T10:17:27;1.85;;;0.80;;
11425;SDS011;5769;47.998;7.788;2023-10-19T10:19:55;0.98;;;0.73;;
11425;SDS011;5769;47.998;7.788;2023-10-19T10:22:25;1.77;;;0.90;;
11425;SDS011;5769;47.998;7.788;2023-10-19T10:24:55;0.95;;;0.70;;
11425;SDS011;5769;47.998;7.788;2023-10-19T10:27:22;1.58;;;0.90;;
11425;SDS011;5769;47.998;7.788;2023-10-19T10:29:55;1.17;;;0.75;;
11425;SDS011;5769;47.998;7.788;2023-10-19T10:32:43;0.95;;;0.70;;
11425;SDS011;5769;47.998;7.788;2023-10-19T10:38:13;2.03;;;0.70;;
11425;SDS011;5769;47.998;7.788;2023-10-19T10:40:42;1.65;;;0.80;;
11425;SDS011;5769;47.998;7.788;2023-10-19T10:43:09;1.23;;;0.85;;
11425;SDS011;5769;47.998;7.788;2023-10-19T10:45:38;2.55;;;0.80;;
11425;SDS011;5769;47.998;7.788;2023-10-19T10:48:10;2.33;;;0.90;;
11425;SDS011;5769;47.998;7.788;2023-10-19T10:50:38;1.98;;;0.80;;
11425;SDS011;5769;47.998;7.788;2023-10-19T10:53:06;3.55;;;0.85;;
11425;SDS011;5769;47.998;7.788;2023-10-19T10:55:33;1.92;;;0.70;;
11425;SDS011;5769;47.998;7.788;2023-10-19T10:58:00;1.75;;;0.80;;
11425;SDS011;5769;47.998;7.788;2023-10-19T11:00:27;1.00;;;0.70;;
11425;SDS011;5769;47.998;7.788;2023-10-19T11:03:01;0.85;;;0.70;;
11425;SDS011;5769;47.998;7.788;2023-10-19T11:05:29;1.95;;;0.80;;
11425;SDS011;5769;47.998;7.788;2023-10-19T11:08:03;1.42;;;0.82;;
11425;SDS011;5769;47.998;7.788;2023-10-19T11:10:32;1.55;;;0.68;;
11425;SDS011;5769;47.998;7.788;2023-10-19T11:13:00;0.85;;;0.70;;
11425;SDS011;5769;47.998;7.788;2023-10-19T11:15:27;1.42;;;0.90;;
11425;SDS011;5769;47.998;7.788;2023-10-19T11:17:54;0.95;;;0.60;;
11425;SDS011;5769;47.998;7.788;2023-10-19T11:20:22;1.30;;;0.80;;
11425;SDS011;5769;47.998;7.788;2023-10-19T11:22:50;1.52;;;0.82;;
11425;SDS011;5769;47.998;7.788;2023-10-19T11:25:21;1.48;;;0.80;;
11425;SDS011;5769;47.998;7.788;2023-10-19T11:27:48;1.55;;;0.90;;
11425;SDS011;5769;47.998;7.788;2023-10-19T11:30:22;1.63;;;0.90;;
11425;SDS011;5769;47.998;7.788;2023-10-19T11:32:50;1.48;;;0.70;;
11425;SDS011;5769;47.998;7.788;2023-10-19T11:35:23;1.85;;;0.70;;
11425;SDS011;5769;47.998;7.788;2023-10-19T11:37:51;2.33;;;0.93;;
11425;SDS011;5769;47.998;7.788;2023-10-19T11:40:20;0.75;;;0.55;;
11425;SDS011;5769;47.998;7.788;2023-10-19T11:42:47;1.90;;;0.70;;
11425;SDS011;5769;47.998;7.788;2023-10-19T11:45:15;1.65;;;0.80;;
11425;SDS011;5769;47.998;7.788;2023-10-19T11:47:43;1.00;;;0.70;;
11425;SDS011;5769;47.998;7.788;2023-10-19T11:50:10;1.48;;;0.80;;
11425;SDS011;5769;47.998;7.788;2023-10-19T11:52:40;1.02;;;0.70;;
11425;SDS011;5769;47.998;7.788;2023-10-19T11:55:07;1.02;;;0.57;;
11425;SDS011;5769;47.998;7.788;2023-10-19T11:57:34;0.70;;;0.52;;
11425;SDS011;5769;47.998;7.788;2023-10-19T12:00:01;1.23;;;0.77;;
11425;SDS011;5769;47.998;7.788;2023-10-19T12:02:33;2.45;;;0.80;;
11425;SDS011;5769;47.998;7.788;2023-10-19T12:05:02;1.17;;;0.60;;
11425;SDS011;5769;47.998;7.788;2023-10-19T12:07:29;2.67;;;1.30;;
11425;SDS011;5769;47.998;7.788;2023-10-19T12:09:59;1.40;;;0.80;;
11425;SDS011;5769;47.998;7.788;2023-10-19T12:12:25;0.90;;;0.70;;
11425;SDS011;5769;47.998;7.788;2023-10-19T12:14:52;1.65;;;0.85;;
11425;SDS011;5769;47.998;7.788;2023-10-19T12:17:20;1.13;;;0.70;;
11425;SDS011;5769;47.998;7.788;2023-10-19T12:19:51;1.52;;;0.65;;
11425;SDS011;5769;47.998;7.788;2023-10-19T12:22:17;0.88;;;0.60;;
11425;SDS011;5769;47.998;7.788;2023-10-19T12:24:46;0.50;;;0.50;;
11425;SDS011;5769;47.998;7.788;2023-10-19T12:27:14;1.10;;;0.80;;
11425;SDS011;5769;47.998;7.788;2023-10-19T12:29:41;1.00;;;0.65;;
11425;SDS011;5769;47.998;7.788;2023-10-19T12:32:09;1.08;;;0.63;;
11425;SDS011;5769;47.998;7.788;2023-10-19T12:34:39;2.35;;;0.80;;
11425;SDS011;5769;47.998;7.788;2023-10-19T12:37:06;0.93;;;0.73;;
11425;SDS011;5769;47.998;7.788;2023-10-19T12:39:35;1.63;;;0.80;;
11425;SDS011;5769;47.998;7.788;2023-10-19T12:42:07;0.93;;;0.60;;
11425;SDS011;5769;47.998;7.788;2023-10-19T12:44:35;1.15;;;0.70;;
11425;SDS011;5769;47.998;7.788;2023-10-19T12:47:06;1.00;;;0.70;;
11425;SDS011;5769;47.998;7.788;2023-10-19T12:49:35;1.60;;;0.73;;
11425;SDS011;5769;47.998;7.788;2023-10-19T12:52:02;0.95;;;0.50;;
11425;SDS011;5769;47.998;7.788;2023-10-19T12:54:29;0.77;;;0.70;;
11425;SDS011;5769;47.998;7.788;2023-10-19T12:56:56;1.27;;;0.68;;
11425;SDS011;5769;47.998;7.788;2023-10-19T12:59:22;1.35;;;0.73;;
11425;SDS011;5769;47.998;7.788;2023-10-19T13:01:51;1.20;;;0.70;;
11425;SDS011;5769;47.998;7.788;2023-10-19T13:04:23;1.77;;;0.70;;
11425;SDS011;5769;47.998;7.788;2023-10-19T13:06:49;0.80;;;0.68;;
11425;SDS011;5769;47.998;7.788;2023-10-19T13:09:16;1.67;;;0.70;;
11425;SDS011;5769;47.998;7.788;2023-10-19T13:11:47;0.85;;;0.60;;
11425;SDS011;5769;47.998;7.788;2023-10-19T13:14:16;1.25;;;0.70;;
11425;SDS011;5769;47.998;7.788;2023-10-19T13:16:43;1.75;;;0.70;;
11425;SDS011;5769;47.998;7.788;2023-10-19T13:19:11;1.23;;;0.70;;
11425;SDS011;5769;47.998;7.788;2023-10-19T13:21:41;1.20;;;0.73;;
11425;SDS011;5769;47.998;7.788;2023-10-19T13:24:08;1.00;;;0.60;;
11425;SDS011;5769;47.998;7.788;2023-10-19T13:26:35;2.38;;;0.80;;
11425;SDS011;5769;47.998;7.788;2023-10-19T13:29:03;0.98;;;0.68;;
11425;SDS011;5769;47.998;7.788;2023-10-19T13:31:30;0.82;;;0.60;;
11425;SDS011;5769;47.998;7.788;2023-10-19T13:33:57;1.95;;;0.80;;
11425;SDS011;5769;47.998;7.788;2023-10-19T13:36:26;1.00;;;0.63;;
11425;SDS011;5769;47.998;7.788;2023-10-19T13:38:52;1.05;;;0.57;;
11425;SDS011;5769;47.998;7.788;2023-10-19T13:41:19;1.15;;;0.50;;
11425;SDS011;5769;47.998;7.788;2023-10-19T13:43:46;1.15;;;0.70;;
11425;SDS011;5769;47.998;7.788;2023-10-19T13:46:13;1.77;;;0.50;;
11425;SDS011;5769;47.998;7.788;2023-10-19T13:48:41;0.82;;;0.50;;
11425;SDS011;5769;47.998;7.788;2023-10-19T13:51:07;1.70;;;0.70;;
11425;SDS011;5769;47.998;7.788;2023-10-19T13:53:39;0.90;;;0.70;;
11425;SDS011;5769;47.998;7.788;2023-10-19T13:56:09;0.65;;;0.60;;
11425;SDS011;5769;47.998;7.788;2023-10-19T13:58:36;0.60;;;0.60;;
11425;SDS011;5769;47.998;7.788;2023-10-19T14:01:06;0.90;;;0.70;;
11425;SDS011;5769;47.998;7.788;2023-10-19T14:03:34;0.85;;;0.55;;
11425;SDS011;5769;47.998;7.788;2023-10-19T14:06:02;0.88;;;0.63;;
11425;SDS011;5769;47.998;7.788;2023-10-19T14:08:29;1.30;;;0.70;;
11425;SDS011;5769;47.998;7.788;2023-10-19T14:11:01;1.13;;;0.70;;
11425;SDS011;5769;47.998;7.788;2023-10-19T14:13:28;0.77;;;0.70;;
11425;SDS011;5769;47.998;7.788;2023-10-19T14:15:55;1.08;;;0.60;;
11425;SDS011;5769;47.998;7.788;2023-10-19T14:18:22;1.42;;;0.73;;
11425;SDS011;5769;47.998;7.788;2023-10-19T14:20:49;0.70;;;0.50;;
11425;SDS011;5769;47.998;7.788;2023-10-19T14:23:15;1.50;;;0.57;;
11425;SDS011;5769;47.998;7.788;2023-10-19T14:25:42;0.93;;;0.57;;
11425;SDS011;5769;47.998;7.788;2023-10-19T14:28:10;1.33;;;0.80;;
11425;SDS011;5769;47.998;7.788;2023-10-19T14:30:37;1.23;;;0.65;;
11425;SDS011;5769;47.998;7.788;2023-10-19T14:33:04;1.25;;;0.60;;
11425;SDS011;5769;47.998;7.788;2023-10-19T14:35:35;1.02;;;0.80;;
11425;SDS011;5769;47.998;7.788;2023-10-19T14:38:04;0.80;;;0.50;;
11425;SDS011;5769;47.998;7.788;2023-10-19T14:40:31;1.52;;;0.88;;
11425;SDS011;5769;47.998;7.788;2023-10-19T14:42:58;0.85;;;0.50;;
11425;SDS011;5769;47.998;7.788;2023-10-19T14:45:27;1.02;;;0.70;;
11425;SDS011;5769;47.998;7.788;2023-10-19T14:47:54;0.65;;;0.50;;
11425;SDS011;5769;47.998;7.788;2023-10-19T14:50:22;1.35;;;0.70;;
11425;SDS011;5769;47.998;7.788;2023-10-19T14:52:50;0.70;;;0.50;;
11425;SDS011;5769;47.998;7.788;2023-10-19T14:55:18;1.38;;;0.55;;
11425;SDS011;5769;47.998;7.788;2023-10-19T14:57:46;1.38;;;0.77;;
11425;SDS011;5769;47.998;7.788;2023-10-19T15:00:15;0.95;;;0.65;;
11425;SDS011;5769;47.998;7.788;2023-10-19T15:02:48;0.93;;;0.60;;
11425;SDS011;5769;47.998;7.788;2023-10-19T15:05:16;0.88;;;0.57;;
11425;SDS011;5769;47.998;7.788;2023-10-19T15:07:45;0.88;;;0.60;;
11425;SDS011;5769;47.998;7.788;2023-10-19T15:10:16;0.80;;;0.60;;
11425;SDS011;5769;47.998;7.788;2023-10-19T15:12:43;1.23;;;0.70;;
11425;SDS011;5769;47.998;7.788;2023-10-19T15:15:10;0.70;;;0.50;;
11425;SDS011;5769;47.998;7.788;2023-10-19T15:17:37;0.82;;;0.60;;